Rankings de siempre
Mejores tiempos personales válidos de equipo a través de todos los eventos y temporadas. Cada equipo aparece una vez por división.
Busca por nombre y abre la página donde está clasificado este récord de división.
134,999 equipos clasificados
| Pos. | Pos. AG | Equipo | Nacionalidad | Categoría de edad | TiempoMejor tiempo | Diferencia |
|---|---|---|---|---|---|---|
| 133651 | #46572 | Darren Pang & Shirlene SohSIN · X 30-34 · AG #46572 | SIN | X 30-34 | 2:13:29 | +84:16 |
| 133652 | #18042 | Adheer Awasthi & Diya MalhotraIND · X 40-44 · AG #18042 | IND | X 40-44 | 2:13:30 | +84:17 |
| 133653 | #3177 | 峰 吴 & JING XIAOX 50-54 · AG #3177 | -- | X 50-54 | 2:13:30 | +84:17 |
| 133654 | -- | Laura Orosz & Gergő SzalaiHUN · X XU29 | HUN | X XU29 | 2:13:30 | +84:17 |
| 133655 | #46573 | Josephin Braun & Thomas BehnekeGER · X 30-34 · AG #46573 | GER | X 30-34 | 2:13:30 | +84:17 |
| 133656 | #3178 | Fredrik Jansson & Helen BainbridgeAUS · X 50-54 · AG #3178 | AUS | X 50-54 | 2:13:30 | +84:17 |
| 133657 | #16722 | Dominic Wood & Zara LewisGBR · X 35-39 · AG #16722 | GBR | X 35-39 | 2:13:30 | +84:17 |
| 133658 | #16723 | Martin Louis B. Alejandro & You Hui NgX 35-39 · AG #16723 | -- | X 35-39 | 2:13:31 | +84:18 |
| 133659 | #46574 | Henri Kaes & Henri Kaes & Florine Ansel & Florine AnselFRA · X 30-34 · AG #46574 | FRA | X 30-34 | 2:13:31 | +84:18 |
| 133660 | #20437 | Joseph Leung & Janet WongHKG · X 25-29 · AG #20437 | HKG | X 25-29 | 2:13:32 | +84:19 |
| 133661 | #4573 | Wendell James & Tasha JamesUSA · X 45-49 · AG #4573 | USA | X 45-49 | 2:13:32 | +84:19 |
| 133662 | #16724 | Zi Yong Theng & Faulyne Gagarin TanSIN · X 35-39 · AG #16724 | SIN | X 35-39 | 2:13:32 | +84:19 |
| 133663 | #46575 | Seher Hatun & Tamer AktasGER · X 30-34 · AG #46575 | GER | X 30-34 | 2:13:33 | +84:20 |
| 133664 | #3179 | Alex Piquero & Nicole PiqueroUSA · X 50-54 · AG #3179 | USA | X 50-54 | 2:13:34 | +84:21 |
| 133665 | #20438 | Dominick Eatough & Gabrielle MarsdenGBR · X 25-29 · AG #20438 | GBR | X 25-29 | 2:13:35 | +84:22 |
| 133666 | #46576 | Daniel WAAKA-IRAIA & Josephine WAITENZL · X 30-34 · AG #46576 | NZL | X 30-34 | 2:13:35 | +84:22 |
| 133667 | #584 | Christopher Harris & Trudi BrocasNZL · X 55-59 · AG #584 | NZL | X 55-59 | 2:13:36 | +84:23 |
| 133668 | -- | Mia Gorgan & Bryce RichardsonUSA · X XU29 | USA | X XU29 | 2:13:36 | +84:23 |
| 133669 | #46577 | Rachel BAROUCH & Brandon MENDELSOHNUSA · X 30-34 · AG #46577 | USA | X 30-34 | 2:13:36 | +84:23 |
| 133670 | #46578 | Sivuyisiwe Nqini & Gugulethu RajuiliRSA · X 30-34 · AG #46578 | RSA | X 30-34 | 2:13:36 | +84:23 |
| 133671 | #16725 | Benedetto Lorusso & Fabiana FilipponioITA · X 35-39 · AG #16725 | ITA | X 35-39 | 2:13:37 | +84:24 |
| 133672 | #46579 | Eugenio Pollini & Eleonora PolliniITA · X 30-34 · AG #46579 | ITA | X 30-34 | 2:13:37 | +84:24 |
| 133673 | #18043 | Gianna Bostedt & Bobby RadfarUSA · X 40-44 · AG #18043 | USA | X 40-44 | 2:13:37 | +84:24 |
| 133674 | #16726 | Richard Perez & Christina HolmesUSA · X 35-39 · AG #16726 | USA | X 35-39 | 2:13:37 | +84:24 |
| 133675 | #18044 | Barry Scallan & Emma Hamilton AndersonIRL · X 40-44 · AG #18044 | IRL | X 40-44 | 2:13:38 | +84:25 |
Página 5,347 de 5,400